Bennington, Minnesota
Current Conditions -  °F | °C
As of 10:54 AM on Tuesday 27 Jan 2015 (Local Time) from KRST Reporting Station
Overcast Overcast  
Wind Chill: 25°   Ceiling: 1400
Heat Index: 30°   Visibility: 10mi
Dew Point: 25°   Wind: 5mph
Humidity: 82%   Direction: 70°ENE
Pressure: 30.16"   Gusts: NA
Location:  43.7143°N, 92.5748°W
Report Text: KRST 271654Z 07004KT 10SM OVC014 M01/M04 A3016 RMK AO2 SLP229 T10111039
Loading
Personal Weather Stations






























Interactive Weather Map New forecast layout! Learn more

10-Day Weather Forecast

Advertisements
Track Severe Weather on mobile